sensor_id;sensor_type;location;lat;lon;timestamp;pressure;altitude;pressure_sealevel;temperature;humidity
80482;BME280;69797;43.864;21.410;2023-06-22T00:00:14;100279.41;;;20.39;72.98
80482;BME280;69797;43.864;21.410;2023-06-22T00:02:41;100288.84;;;20.43;72.21
80482;BME280;69797;43.864;21.410;2023-06-22T00:05:08;100284.13;;;20.38;71.87
80482;BME280;69797;43.864;21.410;2023-06-22T00:07:34;100290.78;;;20.37;73.41
80482;BME280;69797;43.864;21.410;2023-06-22T00:10:01;100277.69;;;20.37;74.29
80482;BME280;69797;43.864;21.410;2023-06-22T00:12:28;100284.13;;;20.38;73.63
80482;BME280;69797;43.864;21.410;2023-06-22T00:14:55;100266.31;;;20.34;72.92
80482;BME280;69797;43.864;21.410;2023-06-22T00:17:21;100279.41;;;20.39;72.00
80482;BME280;69797;43.864;21.410;2023-06-22T00:19:51;100285.22;;;20.42;71.95
80482;BME280;69797;43.864;21.410;2023-06-22T00:22:20;100280.22;;;20.39;72.53
80482;BME280;69797;43.864;21.410;2023-06-22T00:24:56;100269.41;;;20.32;71.42
80482;BME280;69797;43.864;21.410;2023-06-22T00:27:23;100262.75;;;20.28;71.58
80482;BME280;69797;43.864;21.410;2023-06-22T00:29:50;100249.97;;;20.27;71.44
80482;BME280;69797;43.864;21.410;2023-06-22T00:32:19;100241.09;;;20.15;71.94
80482;BME280;69797;43.864;21.410;2023-06-22T00:34:45;100281.94;;;20.25;71.32
80482;BME280;69797;43.864;21.410;2023-06-22T00:37:12;100286.69;;;20.19;71.24
80482;BME280;69797;43.864;21.410;2023-06-22T00:39:42;100282.81;;;20.15;71.24
80482;BME280;69797;43.864;21.410;2023-06-22T00:42:09;100297.53;;;20.16;72.08
80482;BME280;69797;43.864;21.410;2023-06-22T00:44:36;100283.97;;;20.04;71.75
80482;BME280;69797;43.864;21.410;2023-06-22T00:47:03;100285.66;;;20.00;71.53
80482;BME280;69797;43.864;21.410;2023-06-22T00:49:30;100289.81;;;19.97;72.18
80482;BME280;69797;43.864;21.410;2023-06-22T00:51:57;100298.16;;;19.97;73.02
80482;BME280;69797;43.864;21.410;2023-06-22T00:54:24;100290.41;;;19.89;73.13
80482;BME280;69797;43.864;21.410;2023-06-22T00:56:53;100308.75;;;19.95;73.17
80482;BME280;69797;43.864;21.410;2023-06-22T00:59:24;100308.44;;;19.97;73.97
80482;BME280;69797;43.864;21.410;2023-06-22T01:01:52;100296.78;;;19.89;73.59
80482;BME280;69797;43.864;21.410;2023-06-22T01:04:19;100290.66;;;19.87;74.14
80482;BME280;69797;43.864;21.410;2023-06-22T01:06:55;100299.28;;;19.91;73.97
80482;BME280;69797;43.864;21.410;2023-06-22T01:09:31;100303.72;;;19.87;74.76
80482;BME280;69797;43.864;21.410;2023-06-22T01:12:04;100277.06;;;19.76;75.07
80482;BME280;69797;43.864;21.410;2023-06-22T01:14:43;100287.38;;;19.75;74.84
80482;BME280;69797;43.864;21.410;2023-06-22T01:17:15;100275.69;;;19.68;74.98
80482;BME280;69797;43.864;21.410;2023-06-22T01:19:49;100278.47;;;19.73;75.36
80482;BME280;69797;43.864;21.410;2023-06-22T01:22:29;100264.84;;;19.61;75.12
80482;BME280;69797;43.864;21.410;2023-06-22T01:25:19;100281.25;;;19.73;75.74
80482;BME280;69797;43.864;21.410;2023-06-22T01:28:13;100272.06;;;19.73;74.81
80482;BME280;69797;43.864;21.410;2023-06-22T01:30:45;100255.41;;;19.57;74.80
80482;BME280;69797;43.864;21.410;2023-06-22T01:33:13;100270.16;;;19.68;73.99
80482;BME280;69797;43.864;21.410;2023-06-22T01:35:41;100232.66;;;19.45;74.23
80482;BME280;69797;43.864;21.410;2023-06-22T01:38:09;100240.13;;;19.50;73.40
80482;BME280;69797;43.864;21.410;2023-06-22T01:40:36;100265.41;;;19.69;73.85
80482;BME280;69797;43.864;21.410;2023-06-22T01:43:03;100260.97;;;19.62;73.58
80482;BME280;69797;43.864;21.410;2023-06-22T01:45:30;100269.84;;;19.70;73.36
80482;BME280;69797;43.864;21.410;2023-06-22T01:47:57;100240.69;;;19.57;72.95
80482;BME280;69797;43.864;21.410;2023-06-22T01:50:32;100255.16;;;19.64;73.18
80482;BME280;69797;43.864;21.410;2023-06-22T01:53:01;100264.84;;;19.72;73.11
80482;BME280;69797;43.864;21.410;2023-06-22T01:55:31;100265.69;;;19.72;73.01
80482;BME280;69797;43.864;21.410;2023-06-22T01:57:58;100270.41;;;19.72;72.67
80482;BME280;69797;43.864;21.410;2023-06-22T02:00:28;100254.56;;;19.62;73.46
80482;BME280;69797;43.864;21.410;2023-06-22T02:03:02;100275.16;;;19.71;72.81
80482;BME280;69797;43.864;21.410;2023-06-22T02:05:35;100286.25;;;19.71;72.70
80482;BME280;69797;43.864;21.410;2023-06-22T02:08:11;100281.25;;;19.68;73.18
80482;BME280;69797;43.864;21.410;2023-06-22T02:10:42;100271.78;;;19.59;74.37
80482;BME280;69797;43.864;21.410;2023-06-22T02:13:11;100296.22;;;19.62;73.23
80482;BME280;69797;43.864;21.410;2023-06-22T02:15:39;100296.50;;;19.55;74.77
80482;BME280;69797;43.864;21.410;2023-06-22T02:18:07;100268.50;;;19.31;76.04
80482;BME280;69797;43.864;21.410;2023-06-22T02:20:36;100289.31;;;19.34;76.58
80482;BME280;69797;43.864;21.410;2023-06-22T02:23:05;100265.69;;;19.11;75.78
80482;BME280;69797;43.864;21.410;2023-06-22T02:25:33;100272.09;;;19.11;75.79
80482;BME280;69797;43.864;21.410;2023-06-22T02:27:59;100291.53;;;19.16;77.64
80482;BME280;69797;43.864;21.410;2023-06-22T02:30:29;100297.34;;;19.15;76.63
80482;BME280;69797;43.864;21.410;2023-06-22T02:32:56;100286.53;;;19.03;76.11
80482;BME280;69797;43.864;21.410;2023-06-22T02:35:27;100295.69;;;19.04;76.34
80482;BME280;69797;43.864;21.410;2023-06-22T02:37:59;100307.63;;;19.14;76.69
80482;BME280;69797;43.864;21.410;2023-06-22T02:40:28;100288.19;;;19.04;78.09
80482;BME280;69797;43.864;21.410;2023-06-22T02:42:58;100295.66;;;19.09;79.34
80482;BME280;69797;43.864;21.410;2023-06-22T02:45:29;100321.78;;;19.23;77.96
80482;BME280;69797;43.864;21.410;2023-06-22T02:47:56;100312.38;;;19.24;77.61
80482;BME280;69797;43.864;21.410;2023-06-22T02:50:23;100299.59;;;19.28;78.53
80482;BME280;69797;43.864;21.410;2023-06-22T02:52:50;100302.38;;;19.28;77.82
80482;BME280;69797;43.864;21.410;2023-06-22T02:55:17;100296.78;;;19.23;77.07
80482;BME280;69797;43.864;21.410;2023-06-22T02:57:44;100320.72;;;19.34;79.45
80482;BME280;69797;43.864;21.410;2023-06-22T03:00:15;100322.38;;;19.35;77.99
80482;BME280;69797;43.864;21.410;2023-06-22T03:02:44;100321.25;;;19.26;78.48
80482;BME280;69797;43.864;21.410;2023-06-22T03:05:12;100330.69;;;19.30;81.22
80482;BME280;69797;43.864;21.410;2023-06-22T03:07:41;100311.78;;;19.12;79.45
80482;BME280;69797;43.864;21.410;2023-06-22T03:10:09;100321.25;;;19.21;78.96
80482;BME280;69797;43.864;21.410;2023-06-22T03:12:37;100319.03;;;19.18;81.41
80482;BME280;69797;43.864;21.410;2023-06-22T03:15:06;100321.78;;;19.18;79.80
80482;BME280;69797;43.864;21.410;2023-06-22T03:17:34;100340.13;;;19.24;80.40
80482;BME280;69797;43.864;21.410;2023-06-22T03:20:02;100330.13;;;19.13;80.74
80482;BME280;69797;43.864;21.410;2023-06-22T03:22:39;100339.56;;;19.12;83.35
80482;BME280;69797;43.864;21.410;2023-06-22T03:25:07;100309.00;;;19.02;84.62
80482;BME280;69797;43.864;21.410;2023-06-22T03:27:40;100317.06;;;19.18;82.53
80482;BME280;69797;43.864;21.410;2023-06-22T03:30:09;100323.75;;;19.33;82.81
80482;BME280;69797;43.864;21.410;2023-06-22T03:32:39;100325.41;;;19.44;81.81
80482;BME280;69797;43.864;21.410;2023-06-22T03:35:07;100347.13;;;19.68;80.68
80482;BME280;69797;43.864;21.410;2023-06-22T03:37:33;100327.38;;;19.79;79.71
80482;BME280;69797;43.864;21.410;2023-06-22T03:40:00;100336.78;;;20.14;79.13
80482;BME280;69797;43.864;21.410;2023-06-22T03:42:27;100334.75;;;20.40;78.33
80482;BME280;69797;43.864;21.410;2023-06-22T03:44:54;100327.47;;;20.59;76.75
80482;BME280;69797;43.864;21.410;2023-06-22T03:47:25;100330.28;;;21.04;74.62
80482;BME280;69797;43.864;21.410;2023-06-22T03:49:52;100322.69;;;21.54;72.77
80482;BME280;69797;43.864;21.410;2023-06-22T03:52:22;100320.16;;;22.16;70.16
80482;BME280;69797;43.864;21.410;2023-06-22T03:54:51;100318.53;;;22.82;68.34
80482;BME280;69797;43.864;21.410;2023-06-22T03:57:18;100311.19;;;23.42;65.91
80482;BME280;69797;43.864;21.410;2023-06-22T03:59:44;100314.88;;;24.03;64.31
80482;BME280;69797;43.864;21.410;2023-06-22T04:02:11;100282.69;;;24.47;64.74
80482;BME280;69797;43.864;21.410;2023-06-22T04:04:40;100332.63;;;25.31;62.68
80482;BME280;69797;43.864;21.410;2023-06-22T04:07:07;100321.88;;;25.70;59.85
80482;BME280;69797;43.864;21.410;2023-06-22T04:09:37;100336.25;;;26.30;61.13
80482;BME280;69797;43.864;21.410;2023-06-22T04:12:04;100334.97;;;26.85;59.13
80482;BME280;69797;43.864;21.410;2023-06-22T04:14:31;100332.38;;;27.15;58.79
80482;BME280;69797;43.864;21.410;2023-06-22T04:16:58;100324.13;;;27.18;59.42
80482;BME280;69797;43.864;21.410;2023-06-22T04:19:25;100338.03;;;27.41;58.88
80482;BME280;69797;43.864;21.410;2023-06-22T04:21:52;100322.81;;;27.33;59.16
80482;BME280;69797;43.864;21.410;2023-06-22T04:24:19;100322.94;;;27.54;58.63
80482;BME280;69797;43.864;21.410;2023-06-22T04:26:48;100332.38;;;27.76;57.93
80482;BME280;69797;43.864;21.410;2023-06-22T04:29:15;100314.31;;;27.94;57.62
80482;BME280;69797;43.864;21.410;2023-06-22T04:31:42;100324.91;;;28.44;56.76
80482;BME280;69797;43.864;21.410;2023-06-22T04:34:10;100328.84;;;28.81;55.96
80482;BME280;69797;43.864;21.410;2023-06-22T04:36:39;100340.03;;;28.99;53.90
80482;BME280;69797;43.864;21.410;2023-06-22T04:39:12;100338.50;;;29.01;54.25
80482;BME280;69797;43.864;21.410;2023-06-22T04:41:40;100347.47;;;29.24;56.03
80482;BME280;69797;43.864;21.410;2023-06-22T04:44:17;100338.91;;;29.75;52.56
80482;BME280;69797;43.864;21.410;2023-06-22T04:46:55;100337.72;;;29.76;51.94
80482;BME280;69797;43.864;21.410;2023-06-22T04:49:36;100346.38;;;29.92;52.31
80482;BME280;69797;43.864;21.410;2023-06-22T04:52:08;100334.94;;;30.33;53.98
80482;BME280;69797;43.864;21.410;2023-06-22T04:54:36;100352.16;;;30.90;52.45
80482;BME280;69797;43.864;21.410;2023-06-22T04:57:06;100345.53;;;31.10;52.00
80482;BME280;69797;43.864;21.410;2023-06-22T04:59:37;100352.84;;;31.23;51.00
80482;BME280;69797;43.864;21.410;2023-06-22T05:02:11;100359.56;;;31.59;51.11
80482;BME280;69797;43.864;21.410;2023-06-22T05:04:38;100358.81;;;32.34;51.74
80482;BME280;69797;43.864;21.410;2023-06-22T05:07:09;100344.78;;;33.21;50.73
80482;BME280;69797;43.864;21.410;2023-06-22T05:09:36;100353.31;;;33.79;49.26
80482;BME280;69797;43.864;21.410;2023-06-22T05:12:03;100362.38;;;34.27;48.11
80482;BME280;69797;43.864;21.410;2023-06-22T05:14:34;100364.63;;;34.87;46.89
80482;BME280;69797;43.864;21.410;2023-06-22T05:17:03;100348.31;;;35.10;45.89
80482;BME280;69797;43.864;21.410;2023-06-22T05:19:30;100366.69;;;35.43;45.14
80482;BME280;69797;43.864;21.410;2023-06-22T05:22:00;100364.56;;;35.36;44.17
80482;BME280;69797;43.864;21.410;2023-06-22T05:24:28;100355.56;;;34.81;43.89
80482;BME280;69797;43.864;21.410;2023-06-22T05:26:58;100356.56;;;34.66;45.18
80482;BME280;69797;43.864;21.410;2023-06-22T05:29:24;100381.19;;;34.81;45.20
80482;BME280;69797;43.864;21.410;2023-06-22T05:31:53;100376.25;;;34.51;44.51
80482;BME280;69797;43.864;21.410;2023-06-22T05:34:20;100360.16;;;34.17;43.38
80482;BME280;69797;43.864;21.410;2023-06-22T05:36:47;100366.78;;;33.82;44.62
80482;BME280;69797;43.864;21.410;2023-06-22T05:39:14;100349.91;;;33.50;44.01
80482;BME280;69797;43.864;21.410;2023-06-22T05:41:42;100358.63;;;33.06;44.05
80482;BME280;69797;43.864;21.410;2023-06-22T05:44:12;100365.06;;;32.40;45.22
80482;BME280;69797;43.864;21.410;2023-06-22T05:46:43;100356.19;;;31.41;45.61
80482;BME280;69797;43.864;21.410;2023-06-22T05:49:12;100362.81;;;30.80;48.39
80482;BME280;69797;43.864;21.410;2023-06-22T05:51:39;100360.66;;;30.90;47.79
80482;BME280;69797;43.864;21.410;2023-06-22T05:54:06;100369.22;;;31.70;49.31
80482;BME280;69797;43.864;21.410;2023-06-22T05:56:34;100364.94;;;32.84;48.78
80482;BME280;69797;43.864;21.410;2023-06-22T05:59:01;100353.91;;;34.07;47.21
80482;BME280;69797;43.864;21.410;2023-06-22T06:01:28;100361.25;;;35.34;45.71
80482;BME280;69797;43.864;21.410;2023-06-22T06:03:55;100367.03;;;36.46;44.19
80482;BME280;69797;43.864;21.410;2023-06-22T06:06:22;100347.31;;;37.30;43.05
80482;BME280;69797;43.864;21.410;2023-06-22T06:08:55;100355.44;;;38.19;42.22
80482;BME280;69797;43.864;21.410;2023-06-22T06:11:22;100344.03;;;38.90;40.72
80482;BME280;69797;43.864;21.410;2023-06-22T06:13:49;100350.06;;;39.31;40.08
80482;BME280;69797;43.864;21.410;2023-06-22T06:16:16;100355.16;;;39.87;39.42
80482;BME280;69797;43.864;21.410;2023-06-22T06:18:43;100358.09;;;40.42;39.30
80482;BME280;69797;43.864;21.410;2023-06-22T06:21:12;100360.00;;;41.08;37.78
80482;BME280;69797;43.864;21.410;2023-06-22T06:23:38;100357.16;;;41.42;37.78
80482;BME280;69797;43.864;21.410;2023-06-22T06:26:05;100359.09;;;41.83;34.65
80482;BME280;69797;43.864;21.410;2023-06-22T06:28:34;100354.53;;;42.16;35.14
80482;BME280;69797;43.864;21.410;2023-06-22T06:31:02;100357.91;;;42.62;36.08
80482;BME280;69797;43.864;21.410;2023-06-22T06:33:29;100355.34;;;43.15;34.01
80482;BME280;69797;43.864;21.410;2023-06-22T06:35:58;100360.72;;;43.56;34.11
80482;BME280;69797;43.864;21.410;2023-06-22T06:38:24;100359.41;;;43.37;33.04
80482;BME280;69797;43.864;21.410;2023-06-22T06:40:51;100345.97;;;43.10;33.27
80482;BME280;69797;43.864;21.410;2023-06-22T06:43:20;100352.84;;;42.93;31.40
80482;BME280;69797;43.864;21.410;2023-06-22T06:45:47;100342.91;;;42.24;32.80
80482;BME280;69797;43.864;21.410;2023-06-22T06:48:17;100348.75;;;41.89;33.54
80482;BME280;69797;43.864;21.410;2023-06-22T06:50:44;100358.81;;;42.05;33.69
80482;BME280;69797;43.864;21.410;2023-06-22T06:53:11;100344.31;;;42.39;33.07
80482;BME280;69797;43.864;21.410;2023-06-22T06:55:38;100343.88;;;42.68;33.25
80482;BME280;69797;43.864;21.410;2023-06-22T06:58:08;100337.78;;;43.29;32.93
80482;BME280;69797;43.864;21.410;2023-06-22T07:00:36;100342.03;;;43.80;32.35
80482;BME280;69797;43.864;21.410;2023-06-22T07:03:04;100334.50;;;44.39;31.87
80482;BME280;69797;43.864;21.410;2023-06-22T07:05:31;100341.88;;;44.89;31.26
80482;BME280;69797;43.864;21.410;2023-06-22T07:07:57;100342.00;;;45.15;31.11
80482;BME280;69797;43.864;21.410;2023-06-22T07:10:24;100339.47;;;45.17;30.18
80482;BME280;69797;43.864;21.410;2023-06-22T07:12:51;100343.19;;;45.46;30.41
80482;BME280;69797;43.864;21.410;2023-06-22T07:15:18;100347.19;;;45.78;29.71
80482;BME280;69797;43.864;21.410;2023-06-22T07:17:45;100353.13;;;45.87;29.56
80482;BME280;69797;43.864;21.410;2023-06-22T07:20:14;100354.66;;;46.17;29.11
80482;BME280;69797;43.864;21.410;2023-06-22T07:22:42;100349.97;;;46.46;27.86
80482;BME280;69797;43.864;21.410;2023-06-22T07:25:10;100354.38;;;46.63;28.44
80482;BME280;69797;43.864;21.410;2023-06-22T07:28:01;100345.53;;;46.79;26.22
80482;BME280;69797;43.864;21.410;2023-06-22T07:30:30;100355.41;;;46.56;26.33
80482;BME280;69797;43.864;21.410;2023-06-22T07:33:00;100339.59;;;46.35;27.29
80482;BME280;69797;43.864;21.410;2023-06-22T07:35:31;100323.03;;;45.98;27.93
80482;BME280;69797;43.864;21.410;2023-06-22T07:37:58;100321.28;;;45.87;27.47
80482;BME280;69797;43.864;21.410;2023-06-22T07:40:30;100314.47;;;46.07;27.96
80482;BME280;69797;43.864;21.410;2023-06-22T07:42:58;100332.22;;;46.56;27.03
80482;BME280;69797;43.864;21.410;2023-06-22T07:45:24;100313.00;;;46.62;27.32
80482;BME280;69797;43.864;21.410;2023-06-22T07:47:51;100316.75;;;46.85;27.37
80482;BME280;69797;43.864;21.410;2023-06-22T07:50:18;100321.72;;;46.62;26.64
80482;BME280;69797;43.864;21.410;2023-06-22T07:52:45;100315.84;;;45.89;26.59
80482;BME280;69797;43.864;21.410;2023-06-22T07:55:12;100300.50;;;45.51;27.10
80482;BME280;69797;43.864;21.410;2023-06-22T07:57:39;100309.81;;;45.97;27.20
80482;BME280;69797;43.864;21.410;2023-06-22T08:00:08;100306.22;;;46.31;27.34
80482;BME280;69797;43.864;21.410;2023-06-22T08:02:45;100298.75;;;46.55;24.87
80482;BME280;69797;43.864;21.410;2023-06-22T08:05:14;100290.31;;;46.48;25.42
80482;BME280;69797;43.864;21.410;2023-06-22T08:07:47;100294.22;;;46.67;26.02
80482;BME280;69797;43.864;21.410;2023-06-22T08:10:15;100284.97;;;46.94;25.82
80482;BME280;69797;43.864;21.410;2023-06-22T08:12:42;100283.03;;;47.13;25.44
80482;BME280;69797;43.864;21.410;2023-06-22T08:15:09;100289.97;;;47.16;25.28
80482;BME280;69797;43.864;21.410;2023-06-22T08:17:38;100282.47;;;47.27;25.11
80482;BME280;69797;43.864;21.410;2023-06-22T08:20:09;100291.38;;;47.55;24.28
80482;BME280;69797;43.864;21.410;2023-06-22T08:22:42;100290.97;;;47.97;23.17
80482;BME280;69797;43.864;21.410;2023-06-22T08:25:09;100305.75;;;48.30;24.21
80482;BME280;69797;43.864;21.410;2023-06-22T08:27:38;100295.03;;;48.67;24.02
80482;BME280;69797;43.864;21.410;2023-06-22T08:30:06;100295.72;;;48.90;23.25
80482;BME280;69797;43.864;21.410;2023-06-22T08:32:34;100302.97;;;49.04;23.15
80482;BME280;69797;43.864;21.410;2023-06-22T08:35:01;100302.81;;;49.26;23.40
80482;BME280;69797;43.864;21.410;2023-06-22T08:37:28;100306.19;;;49.33;23.10
80482;BME280;69797;43.864;21.410;2023-06-22T08:40:07;100294.06;;;49.44;21.47
80482;BME280;69797;43.864;21.410;2023-06-22T08:42:39;100285.00;;;49.51;22.93
80482;BME280;69797;43.864;21.410;2023-06-22T08:45:07;100287.56;;;49.49;21.94
80482;BME280;69797;43.864;21.410;2023-06-22T08:47:33;100299.13;;;49.16;22.76
80482;BME280;69797;43.864;21.410;2023-06-22T08:50:03;100277.13;;;49.06;22.71
80482;BME280;69797;43.864;21.410;2023-06-22T08:52:30;100291.31;;;49.40;23.02
80482;BME280;69797;43.864;21.410;2023-06-22T08:54:57;100308.22;;;49.69;22.62
80482;BME280;69797;43.864;21.410;2023-06-22T08:57:28;100277.69;;;49.65;21.82
80482;BME280;69797;43.864;21.410;2023-06-22T08:59:55;100282.31;;;49.72;22.48
80482;BME280;69797;43.864;21.410;2023-06-22T09:02:26;100290.13;;;49.65;22.02
80482;BME280;69797;43.864;21.410;2023-06-22T09:05:03;100279.38;;;49.29;20.87
80482;BME280;69797;43.864;21.410;2023-06-22T09:07:30;100292.13;;;49.41;22.27
80482;BME280;69797;43.864;21.410;2023-06-22T09:09:57;100290.78;;;49.60;21.58
80482;BME280;69797;43.864;21.410;2023-06-22T09:12:25;100271.94;;;49.28;21.64
80482;BME280;69797;43.864;21.410;2023-06-22T09:14:53;100286.34;;;49.04;21.64
80482;BME280;69797;43.864;21.410;2023-06-22T09:17:20;100282.59;;;48.76;21.80
80482;BME280;69797;43.864;21.410;2023-06-22T09:19:47;100275.47;;;48.49;22.20
80482;BME280;69797;43.864;21.410;2023-06-22T09:22:15;100286.13;;;48.03;22.09
80482;BME280;69797;43.864;21.410;2023-06-22T09:24:41;100274.88;;;46.99;22.42
80482;BME280;69797;43.864;21.410;2023-06-22T09:27:08;100258.38;;;45.50;22.76
80482;BME280;69797;43.864;21.410;2023-06-22T09:29:35;100261.94;;;44.04;23.61
80482;BME280;69797;43.864;21.410;2023-06-22T09:32:02;100250.91;;;42.63;24.59
80482;BME280;69797;43.864;21.410;2023-06-22T09:34:29;100282.41;;;41.73;25.52
80482;BME280;69797;43.864;21.410;2023-06-22T09:36:58;100264.25;;;40.81;26.29
80482;BME280;69797;43.864;21.410;2023-06-22T09:39:27;100248.88;;;40.08;26.81
80482;BME280;69797;43.864;21.410;2023-06-22T09:41:54;100252.59;;;39.39;27.31
80482;BME280;69797;43.864;21.410;2023-06-22T09:44:23;100272.00;;;38.95;28.32
80482;BME280;69797;43.864;21.410;2023-06-22T09:46:49;100273.69;;;38.28;28.15
80482;BME280;69797;43.864;21.410;2023-06-22T09:49:16;100274.78;;;37.49;29.28
80482;BME280;69797;43.864;21.410;2023-06-22T09:51:43;100285.44;;;36.86;29.13
80482;BME280;69797;43.864;21.410;2023-06-22T09:54:10;100276.75;;;36.16;30.36
80482;BME280;69797;43.864;21.410;2023-06-22T09:56:37;100306.47;;;35.78;31.43
80482;BME280;69797;43.864;21.410;2023-06-22T09:59:04;100303.59;;;35.41;31.94
80482;BME280;69797;43.864;21.410;2023-06-22T10:01:43;100299.88;;;34.80;33.00
80482;BME280;69797;43.864;21.410;2023-06-22T10:04:10;100302.34;;;34.32;33.92
80482;BME280;69797;43.864;21.410;2023-06-22T10:06:37;100303.66;;;33.92;34.02
80482;BME280;69797;43.864;21.410;2023-06-22T10:09:08;100282.94;;;33.49;34.73
80482;BME280;69797;43.864;21.410;2023-06-22T10:11:35;100293.44;;;33.29;35.37
80482;BME280;69797;43.864;21.410;2023-06-22T10:14:05;100286.66;;;33.14;36.60
80482;BME280;69797;43.864;21.410;2023-06-22T10:16:32;100300.78;;;32.95;36.59
80482;BME280;69797;43.864;21.410;2023-06-22T10:18:59;100274.00;;;32.77;37.79
80482;BME280;69797;43.864;21.410;2023-06-22T10:21:29;100288.44;;;32.87;38.55
80482;BME280;69797;43.864;21.410;2023-06-22T10:23:59;100278.38;;;32.90;37.45
80482;BME280;69797;43.864;21.410;2023-06-22T10:26:28;100287.38;;;33.11;37.19
80482;BME280;69797;43.864;21.410;2023-06-22T10:28:55;100289.03;;;33.32;37.07
80482;BME280;69797;43.864;21.410;2023-06-22T10:31:41;100264.53;;;33.24;37.36
80482;BME280;69797;43.864;21.410;2023-06-22T10:34:08;100280.06;;;33.30;37.40
80482;BME280;69797;43.864;21.410;2023-06-22T10:36:35;100267.34;;;33.24;36.92
80482;BME280;69797;43.864;21.410;2023-06-22T10:39:02;100267.13;;;33.13;36.79
80482;BME280;69797;43.864;21.410;2023-06-22T10:41:29;100270.22;;;33.04;36.95
80482;BME280;69797;43.864;21.410;2023-06-22T10:43:57;100272.16;;;33.00;36.53
80482;BME280;69797;43.864;21.410;2023-06-22T10:46:25;100263.81;;;32.91;36.81
80482;BME280;69797;43.864;21.410;2023-06-22T10:48:52;100254.16;;;32.77;37.30
80482;BME280;69797;43.864;21.410;2023-06-22T10:51:21;100247.31;;;32.78;37.26
80482;BME280;69797;43.864;21.410;2023-06-22T10:53:48;100270.44;;;32.95;37.15
80482;BME280;69797;43.864;21.410;2023-06-22T10:56:15;100268.09;;;33.01;36.95
80482;BME280;69797;43.864;21.410;2023-06-22T10:58:45;100268.72;;;33.10;37.08
80482;BME280;69797;43.864;21.410;2023-06-22T11:01:12;100263.47;;;33.12;36.89
80482;BME280;69797;43.864;21.410;2023-06-22T11:03:59;100241.81;;;33.04;36.51
80482;BME280;69797;43.864;21.410;2023-06-22T11:06:25;100265.72;;;33.23;36.20
80482;BME280;69797;43.864;21.410;2023-06-22T11:08:52;100252.00;;;33.25;36.94
80482;BME280;69797;43.864;21.410;2023-06-22T11:11:32;100256.22;;;33.34;36.38
80482;BME280;69797;43.864;21.410;2023-06-22T11:13:59;100261.53;;;33.36;37.20
80482;BME280;69797;43.864;21.410;2023-06-22T11:16:25;100262.44;;;33.40;36.75
80482;BME280;69797;43.864;21.410;2023-06-22T11:18:52;100250.63;;;33.38;37.11
80482;BME280;69797;43.864;21.410;2023-06-22T11:21:19;100234.00;;;33.17;36.97
80482;BME280;69797;43.864;21.410;2023-06-22T11:23:46;100251.78;;;33.14;37.41
80482;BME280;69797;43.864;21.410;2023-06-22T11:26:12;100253.31;;;33.11;37.31
80482;BME280;69797;43.864;21.410;2023-06-22T11:28:39;100241.50;;;33.09;37.44
80482;BME280;69797;43.864;21.410;2023-06-22T11:31:08;100234.66;;;33.10;37.41
80482;BME280;69797;43.864;21.410;2023-06-22T11:33:52;100241.00;;;33.04;37.23
80482;BME280;69797;43.864;21.410;2023-06-22T11:36:19;100239.44;;;33.06;37.27
80482;BME280;69797;43.864;21.410;2023-06-22T11:38:46;100222.84;;;33.08;37.27
80482;BME280;69797;43.864;21.410;2023-06-22T11:41:13;100223.88;;;33.19;37.43
80482;BME280;69797;43.864;21.410;2023-06-22T11:43:40;100214.47;;;33.15;37.25
80482;BME280;69797;43.864;21.410;2023-06-22T11:46:10;100239.69;;;33.17;37.64
80482;BME280;69797;43.864;21.410;2023-06-22T11:48:37;100212.56;;;33.00;37.78
80482;BME280;69797;43.864;21.410;2023-06-22T11:51:04;100225.84;;;33.15;37.45
80482;BME280;69797;43.864;21.410;2023-06-22T11:53:33;100240.31;;;33.30;38.27
80482;BME280;69797;43.864;21.410;2023-06-22T11:56:00;100218.28;;;33.23;37.60
80482;BME280;69797;43.864;21.410;2023-06-22T11:58:27;100229.50;;;33.16;37.61
80482;BME280;69797;43.864;21.410;2023-06-22T12:00:54;100230.69;;;33.15;38.08
80482;BME280;69797;43.864;21.410;2023-06-22T12:03:22;100218.53;;;33.14;37.99
80482;BME280;69797;43.864;21.410;2023-06-22T12:05:50;100225.69;;;33.28;38.14
80482;BME280;69797;43.864;21.410;2023-06-22T12:08:18;100204.91;;;33.24;37.82
80482;BME280;69797;43.864;21.410;2023-06-22T12:10:45;100192.66;;;33.39;37.98
80482;BME280;69797;43.864;21.410;2023-06-22T12:13:12;100195.19;;;33.63;37.86
80482;BME280;69797;43.864;21.410;2023-06-22T12:15:39;100202.66;;;33.98;37.83
80482;BME280;69797;43.864;21.410;2023-06-22T12:18:06;100211.72;;;34.04;37.48
80482;BME280;69797;43.864;21.410;2023-06-22T12:20:35;100206.16;;;34.11;37.21
80482;BME280;69797;43.864;21.410;2023-06-22T12:23:02;100204.00;;;34.31;37.45
80482;BME280;69797;43.864;21.410;2023-06-22T12:25:29;100168.81;;;34.39;36.95
80482;BME280;69797;43.864;21.410;2023-06-22T12:27:56;100168.06;;;34.72;36.81
80482;BME280;69797;43.864;21.410;2023-06-22T12:30:23;100168.56;;;35.08;36.54
80482;BME280;69797;43.864;21.410;2023-06-22T12:32:49;100156.59;;;35.29;36.41
80482;BME280;69797;43.864;21.410;2023-06-22T12:35:20;100163.44;;;35.62;35.84
80482;BME280;69797;43.864;21.410;2023-06-22T12:37:47;100164.41;;;35.80;35.93
80482;BME280;69797;43.864;21.410;2023-06-22T12:40:14;100162.81;;;35.83;35.63
80482;BME280;69797;43.864;21.410;2023-06-22T12:42:40;100155.50;;;35.85;35.70
80482;BME280;69797;43.864;21.410;2023-06-22T12:45:09;100157.19;;;35.90;34.81
80482;BME280;69797;43.864;21.410;2023-06-22T12:47:36;100140.84;;;35.83;35.46